sensor_id;sensor_type;location;lat;lon;timestamp;temperature;humidity
37560;DHT22;23398;50.928;7.084;2022-12-07T00:01:38;9.60;89.50
37560;DHT22;23398;50.928;7.084;2022-12-07T00:04:05;9.60;89.50
37560;DHT22;23398;50.928;7.084;2022-12-07T00:06:40;9.60;89.40
37560;DHT22;23398;50.928;7.084;2022-12-07T00:09:09;9.60;89.40
37560;DHT22;23398;50.928;7.084;2022-12-07T00:11:35;9.70;89.40
37560;DHT22;23398;50.928;7.084;2022-12-07T00:14:03;9.60;89.30
37560;DHT22;23398;50.928;7.084;2022-12-07T00:16:31;9.60;89.50
37560;DHT22;23398;50.928;7.084;2022-12-07T00:18:57;9.60;89.60
37560;DHT22;23398;50.928;7.084;2022-12-07T00:21:25;9.60;89.60
37560;DHT22;23398;50.928;7.084;2022-12-07T00:23:52;9.70;89.50
37560;DHT22;23398;50.928;7.084;2022-12-07T00:26:32;9.70;89.30
37560;DHT22;23398;50.928;7.084;2022-12-07T00:29:00;9.70;89.50
37560;DHT22;23398;50.928;7.084;2022-12-07T00:31:29;9.70;89.40
37560;DHT22;23398;50.928;7.084;2022-12-07T00:33:55;9.70;89.30
37560;DHT22;23398;50.928;7.084;2022-12-07T00:36:22;9.70;89.10
37560;DHT22;23398;50.928;7.084;2022-12-07T00:38:48;9.70;89.10
37560;DHT22;23398;50.928;7.084;2022-12-07T00:41:16;9.70;89.20
37560;DHT22;23398;50.928;7.084;2022-12-07T00:43:44;9.70;89.00
37560;DHT22;23398;50.928;7.084;2022-12-07T00:46:10;9.70;88.80
37560;DHT22;23398;50.928;7.084;2022-12-07T00:48:36;9.70;88.70
37560;DHT22;23398;50.928;7.084;2022-12-07T00:51:03;9.70;88.80
37560;DHT22;23398;50.928;7.084;2022-12-07T00:53:29;9.70;88.70
37560;DHT22;23398;50.928;7.084;2022-12-07T00:55:55;9.70;88.70
37560;DHT22;23398;50.928;7.084;2022-12-07T00:58:22;9.70;88.70
37560;DHT22;23398;50.928;7.084;2022-12-07T01:00:48;9.70;88.80
37560;DHT22;23398;50.928;7.084;2022-12-07T01:03:14;9.70;88.80
37560;DHT22;23398;50.928;7.084;2022-12-07T01:05:52;9.70;88.80
37560;DHT22;23398;50.928;7.084;2022-12-07T01:08:18;9.70;88.80
37560;DHT22;23398;50.928;7.084;2022-12-07T01:10:44;9.70;88.80
37560;DHT22;23398;50.928;7.084;2022-12-07T01:13:09;9.70;88.70
37560;DHT22;23398;50.928;7.084;2022-12-07T01:15:39;9.70;88.60
37560;DHT22;23398;50.928;7.084;2022-12-07T01:18:05;9.70;88.70
37560;DHT22;23398;50.928;7.084;2022-12-07T01:20:30;9.70;88.70
37560;DHT22;23398;50.928;7.084;2022-12-07T01:22:56;9.80;89.00
37560;DHT22;23398;50.928;7.084;2022-12-07T01:25:21;9.80;88.90
37560;DHT22;23398;50.928;7.084;2022-12-07T01:27:47;9.80;88.60
37560;DHT22;23398;50.928;7.084;2022-12-07T01:30:13;9.80;88.60
37560;DHT22;23398;50.928;7.084;2022-12-07T01:32:39;9.80;88.50
37560;DHT22;23398;50.928;7.084;2022-12-07T01:35:05;9.70;88.40
37560;DHT22;23398;50.928;7.084;2022-12-07T01:37:37;9.80;88.50
37560;DHT22;23398;50.928;7.084;2022-12-07T01:40:06;9.80;88.60
37560;DHT22;23398;50.928;7.084;2022-12-07T01:42:33;9.80;88.50
37560;DHT22;23398;50.928;7.084;2022-12-07T01:47:45;9.70;88.30
37560;DHT22;23398;50.928;7.084;2022-12-07T01:50:11;9.70;87.90
37560;DHT22;23398;50.928;7.084;2022-12-07T01:52:38;9.70;88.00
37560;DHT22;23398;50.928;7.084;2022-12-07T01:55:08;9.70;88.00
37560;DHT22;23398;50.928;7.084;2022-12-07T01:57:37;9.80;88.10
37560;DHT22;23398;50.928;7.084;2022-12-07T02:00:05;9.70;88.10
37560;DHT22;23398;50.928;7.084;2022-12-07T02:02:38;9.70;88.20
37560;DHT22;23398;50.928;7.084;2022-12-07T02:05:06;9.70;88.30
37560;DHT22;23398;50.928;7.084;2022-12-07T02:07:34;9.70;88.40
37560;DHT22;23398;50.928;7.084;2022-12-07T02:10:24;9.70;88.50
37560;DHT22;23398;50.928;7.084;2022-12-07T02:12:56;9.70;88.90
37560;DHT22;23398;50.928;7.084;2022-12-07T02:15:28;9.70;88.90
37560;DHT22;23398;50.928;7.084;2022-12-07T02:29:11;9.70;89.70
37560;DHT22;23398;50.928;7.084;2022-12-07T02:32:02;9.60;89.40
37560;DHT22;23398;50.928;7.084;2022-12-07T02:34:39;9.70;89.50
37560;DHT22;23398;50.928;7.084;2022-12-07T02:37:19;9.70;89.70
37560;DHT22;23398;50.928;7.084;2022-12-07T02:39:53;9.70;90.00
37560;DHT22;23398;50.928;7.084;2022-12-07T02:42:26;9.70;90.00
37560;DHT22;23398;50.928;7.084;2022-12-07T02:44:54;9.70;90.00
37560;DHT22;23398;50.928;7.084;2022-12-07T02:47:21;9.70;90.00
37560;DHT22;23398;50.928;7.084;2022-12-07T02:49:49;9.60;89.90
37560;DHT22;23398;50.928;7.084;2022-12-07T02:52:15;9.70;90.00
37560;DHT22;23398;50.928;7.084;2022-12-07T02:54:40;9.70;89.80
37560;DHT22;23398;50.928;7.084;2022-12-07T03:00:15;9.70;89.60
37560;DHT22;23398;50.928;7.084;2022-12-07T03:03:03;9.70;89.40
37560;DHT22;23398;50.928;7.084;2022-12-07T03:05:58;9.70;89.60
37560;DHT22;23398;50.928;7.084;2022-12-07T03:11:14;9.70;89.60
37560;DHT22;23398;50.928;7.084;2022-12-07T03:16:48;9.60;89.50
37560;DHT22;23398;50.928;7.084;2022-12-07T03:19:17;9.60;89.40
37560;DHT22;23398;50.928;7.084;2022-12-07T03:21:50;9.60;89.10
37560;DHT22;23398;50.928;7.084;2022-12-07T03:24:24;9.60;89.20
37560;DHT22;23398;50.928;7.084;2022-12-07T03:26:59;9.60;89.20
37560;DHT22;23398;50.928;7.084;2022-12-07T03:29:43;9.70;89.40
37560;DHT22;23398;50.928;7.084;2022-12-07T03:32:16;9.60;89.40
37560;DHT22;23398;50.928;7.084;2022-12-07T03:34:50;9.60;89.50
37560;DHT22;23398;50.928;7.084;2022-12-07T03:37:30;9.60;89.40
37560;DHT22;23398;50.928;7.084;2022-12-07T03:40:11;9.60;89.70
37560;DHT22;23398;50.928;7.084;2022-12-07T03:42:37;9.60;89.70
37560;DHT22;23398;50.928;7.084;2022-12-07T03:45:04;9.60;89.30
37560;DHT22;23398;50.928;7.084;2022-12-07T03:47:42;9.60;89.30
37560;DHT22;23398;50.928;7.084;2022-12-07T03:50:26;9.60;89.30
37560;DHT22;23398;50.928;7.084;2022-12-07T03:52:58;9.60;89.20
37560;DHT22;23398;50.928;7.084;2022-12-07T03:55:30;9.60;89.20
37560;DHT22;23398;50.928;7.084;2022-12-07T03:58:01;9.60;89.10
37560;DHT22;23398;50.928;7.084;2022-12-07T04:00:28;9.60;89.00
37560;DHT22;23398;50.928;7.084;2022-12-07T04:02:55;9.60;89.00
37560;DHT22;23398;50.928;7.084;2022-12-07T04:05:21;9.60;89.00
37560;DHT22;23398;50.928;7.084;2022-12-07T04:07:46;9.60;89.10
37560;DHT22;23398;50.928;7.084;2022-12-07T04:10:12;9.50;89.20
37560;DHT22;23398;50.928;7.084;2022-12-07T04:12:38;9.50;89.10
37560;DHT22;23398;50.928;7.084;2022-12-07T04:15:04;9.50;89.10
37560;DHT22;23398;50.928;7.084;2022-12-07T04:17:30;9.50;89.10
37560;DHT22;23398;50.928;7.084;2022-12-07T04:19:55;9.50;89.20
37560;DHT22;23398;50.928;7.084;2022-12-07T04:22:21;9.50;90.00
37560;DHT22;23398;50.928;7.084;2022-12-07T04:24:46;9.50;89.30
37560;DHT22;23398;50.928;7.084;2022-12-07T04:27:12;9.50;89.40
37560;DHT22;23398;50.928;7.084;2022-12-07T04:29:37;9.50;89.60
37560;DHT22;23398;50.928;7.084;2022-12-07T04:32:03;9.50;89.70
37560;DHT22;23398;50.928;7.084;2022-12-07T04:34:29;9.50;89.90
37560;DHT22;23398;50.928;7.084;2022-12-07T04:36:54;9.50;89.80
37560;DHT22;23398;50.928;7.084;2022-12-07T04:39:31;9.50;89.70
37560;DHT22;23398;50.928;7.084;2022-12-07T04:41:58;9.50;89.80
37560;DHT22;23398;50.928;7.084;2022-12-07T04:44:24;9.50;89.80
37560;DHT22;23398;50.928;7.084;2022-12-07T04:46:51;9.50;89.80
37560;DHT22;23398;50.928;7.084;2022-12-07T04:49:17;9.50;89.80
37560;DHT22;23398;50.928;7.084;2022-12-07T04:51:43;9.50;89.70
37560;DHT22;23398;50.928;7.084;2022-12-07T04:54:09;9.50;89.70
37560;DHT22;23398;50.928;7.084;2022-12-07T04:56:35;9.40;89.60
37560;DHT22;23398;50.928;7.084;2022-12-07T04:59:01;9.50;89.90
37560;DHT22;23398;50.928;7.084;2022-12-07T05:01:27;9.50;90.00
37560;DHT22;23398;50.928;7.084;2022-12-07T05:03:53;9.50;90.00
37560;DHT22;23398;50.928;7.084;2022-12-07T05:06:18;9.40;90.00
37560;DHT22;23398;50.928;7.084;2022-12-07T05:08:44;9.40;90.00
37560;DHT22;23398;50.928;7.084;2022-12-07T05:11:10;9.40;89.90
37560;DHT22;23398;50.928;7.084;2022-12-07T05:14:03;9.40;89.90
37560;DHT22;23398;50.928;7.084;2022-12-07T05:16:30;9.40;90.00
37560;DHT22;23398;50.928;7.084;2022-12-07T05:18:55;9.50;90.00
37560;DHT22;23398;50.928;7.084;2022-12-07T05:21:21;9.50;90.10
37560;DHT22;23398;50.928;7.084;2022-12-07T05:23:46;9.50;90.00
37560;DHT22;23398;50.928;7.084;2022-12-07T05:26:12;9.50;90.00
37560;DHT22;23398;50.928;7.084;2022-12-07T05:28:37;9.40;89.60
37560;DHT22;23398;50.928;7.084;2022-12-07T05:31:03;9.50;89.60
37560;DHT22;23398;50.928;7.084;2022-12-07T05:33:29;9.50;89.70
37560;DHT22;23398;50.928;7.084;2022-12-07T05:35:54;9.50;90.00
37560;DHT22;23398;50.928;7.084;2022-12-07T05:38:20;9.50;90.10
37560;DHT22;23398;50.928;7.084;2022-12-07T05:40:46;9.50;90.20
37560;DHT22;23398;50.928;7.084;2022-12-07T05:43:11;9.50;90.10
37560;DHT22;23398;50.928;7.084;2022-12-07T05:45:37;9.50;90.00
37560;DHT22;23398;50.928;7.084;2022-12-07T05:48:02;9.50;90.00
37560;DHT22;23398;50.928;7.084;2022-12-07T05:50:28;9.50;90.00
37560;DHT22;23398;50.928;7.084;2022-12-07T05:52:54;9.40;89.80
37560;DHT22;23398;50.928;7.084;2022-12-07T05:55:20;9.40;89.70
37560;DHT22;23398;50.928;7.084;2022-12-07T05:57:45;9.50;89.70
37560;DHT22;23398;50.928;7.084;2022-12-07T06:00:31;9.40;89.40
37560;DHT22;23398;50.928;7.084;2022-12-07T06:02:57;9.40;89.10
37560;DHT22;23398;50.928;7.084;2022-12-07T06:05:23;9.40;89.10
37560;DHT22;23398;50.928;7.084;2022-12-07T06:07:48;9.40;89.00
37560;DHT22;23398;50.928;7.084;2022-12-07T06:10:14;9.30;88.80
37560;DHT22;23398;50.928;7.084;2022-12-07T06:12:39;9.40;88.70
37560;DHT22;23398;50.928;7.084;2022-12-07T06:15:08;9.30;88.20
37560;DHT22;23398;50.928;7.084;2022-12-07T06:17:34;9.30;88.00
37560;DHT22;23398;50.928;7.084;2022-12-07T06:19:59;9.20;87.90
37560;DHT22;23398;50.928;7.084;2022-12-07T06:22:25;9.20;87.60
37560;DHT22;23398;50.928;7.084;2022-12-07T06:24:50;9.10;87.40
37560;DHT22;23398;50.928;7.084;2022-12-07T06:27:16;9.00;87.50
37560;DHT22;23398;50.928;7.084;2022-12-07T06:29:41;9.00;87.70
37560;DHT22;23398;50.928;7.084;2022-12-07T06:32:07;9.00;88.00
37560;DHT22;23398;50.928;7.084;2022-12-07T06:34:33;8.90;88.40
37560;DHT22;23398;50.928;7.084;2022-12-07T06:36:58;8.90;88.90
37560;DHT22;23398;50.928;7.084;2022-12-07T06:39:26;8.90;89.30
37560;DHT22;23398;50.928;7.084;2022-12-07T06:41:53;8.90;89.50
37560;DHT22;23398;50.928;7.084;2022-12-07T06:44:19;8.90;89.60
37560;DHT22;23398;50.928;7.084;2022-12-07T06:46:45;8.90;89.70
37560;DHT22;23398;50.928;7.084;2022-12-07T06:49:11;8.90;89.80
37560;DHT22;23398;50.928;7.084;2022-12-07T06:51:37;8.90;89.80
37560;DHT22;23398;50.928;7.084;2022-12-07T06:54:07;8.90;89.90
37560;DHT22;23398;50.928;7.084;2022-12-07T06:56:32;8.90;90.00
37560;DHT22;23398;50.928;7.084;2022-12-07T06:58:58;8.90;90.00
37560;DHT22;23398;50.928;7.084;2022-12-07T07:01:24;8.90;90.10
37560;DHT22;23398;50.928;7.084;2022-12-07T07:03:49;9.00;90.10
37560;DHT22;23398;50.928;7.084;2022-12-07T07:06:15;9.00;90.10
37560;DHT22;23398;50.928;7.084;2022-12-07T07:08:41;9.00;90.10
37560;DHT22;23398;50.928;7.084;2022-12-07T07:11:07;9.00;90.10
37560;DHT22;23398;50.928;7.084;2022-12-07T07:13:33;9.00;90.10
37560;DHT22;23398;50.928;7.084;2022-12-07T07:15:59;9.00;90.50
37560;DHT22;23398;50.928;7.084;2022-12-07T07:18:24;9.00;90.10
37560;DHT22;23398;50.928;7.084;2022-12-07T07:20:51;9.00;90.10
37560;DHT22;23398;50.928;7.084;2022-12-07T07:23:17;9.10;90.10
37560;DHT22;23398;50.928;7.084;2022-12-07T07:25:43;9.10;90.00
37560;DHT22;23398;50.928;7.084;2022-12-07T07:28:09;9.10;89.90
37560;DHT22;23398;50.928;7.084;2022-12-07T07:30:34;9.10;90.00
37560;DHT22;23398;50.928;7.084;2022-12-07T07:33:01;9.00;89.90
37560;DHT22;23398;50.928;7.084;2022-12-07T07:35:28;9.00;90.00
37560;DHT22;23398;50.928;7.084;2022-12-07T07:37:55;9.00;90.00
37560;DHT22;23398;50.928;7.084;2022-12-07T07:40:20;9.00;90.00
37560;DHT22;23398;50.928;7.084;2022-12-07T07:42:50;9.00;89.90
37560;DHT22;23398;50.928;7.084;2022-12-07T07:45:16;9.00;89.90
37560;DHT22;23398;50.928;7.084;2022-12-07T07:47:42;9.00;89.80
37560;DHT22;23398;50.928;7.084;2022-12-07T07:50:08;9.00;90.00
37560;DHT22;23398;50.928;7.084;2022-12-07T07:52:33;9.00;90.00
37560;DHT22;23398;50.928;7.084;2022-12-07T07:54:59;9.00;90.10
37560;DHT22;23398;50.928;7.084;2022-12-07T07:57:25;9.00;90.30
37560;DHT22;23398;50.928;7.084;2022-12-07T07:59:50;9.00;90.30
37560;DHT22;23398;50.928;7.084;2022-12-07T08:02:18;9.00;90.40
37560;DHT22;23398;50.928;7.084;2022-12-07T08:04:45;9.00;90.60
37560;DHT22;23398;50.928;7.084;2022-12-07T08:07:11;9.10;91.00
37560;DHT22;23398;50.928;7.084;2022-12-07T08:09:37;9.10;91.30
37560;DHT22;23398;50.928;7.084;2022-12-07T08:12:04;9.20;91.60
37560;DHT22;23398;50.928;7.084;2022-12-07T08:14:30;9.30;91.70
37560;DHT22;23398;50.928;7.084;2022-12-07T08:16:55;9.40;91.60
37560;DHT22;23398;50.928;7.084;2022-12-07T08:19:21;9.60;91.50
37560;DHT22;23398;50.928;7.084;2022-12-07T08:21:47;9.70;91.20
37560;DHT22;23398;50.928;7.084;2022-12-07T08:24:13;9.70;90.80
37560;DHT22;23398;50.928;7.084;2022-12-07T08:26:41;9.80;90.50
37560;DHT22;23398;50.928;7.084;2022-12-07T08:29:06;9.90;90.30
37560;DHT22;23398;50.928;7.084;2022-12-07T08:31:32;9.90;90.10
37560;DHT22;23398;50.928;7.084;2022-12-07T08:33:57;9.90;90.00
37560;DHT22;23398;50.928;7.084;2022-12-07T08:36:23;9.90;90.00
37560;DHT22;23398;50.928;7.084;2022-12-07T08:38:49;10.00;88.90
37560;DHT22;23398;50.928;7.084;2022-12-07T08:41:15;10.00;88.90
37560;DHT22;23398;50.928;7.084;2022-12-07T08:43:41;10.00;88.60
37560;DHT22;23398;50.928;7.084;2022-12-07T08:48:50;10.10;87.80
37560;DHT22;23398;50.928;7.084;2022-12-07T08:51:18;10.10;87.70
37560;DHT22;23398;50.928;7.084;2022-12-07T08:53:44;10.10;87.70
37560;DHT22;23398;50.928;7.084;2022-12-07T08:56:10;10.10;88.00
37560;DHT22;23398;50.928;7.084;2022-12-07T08:58:37;10.10;88.40
37560;DHT22;23398;50.928;7.084;2022-12-07T09:01:04;10.10;88.80
37560;DHT22;23398;50.928;7.084;2022-12-07T09:03:30;10.30;89.00
37560;DHT22;23398;50.928;7.084;2022-12-07T09:05:56;10.30;88.50
37560;DHT22;23398;50.928;7.084;2022-12-07T09:08:25;10.40;88.00
37560;DHT22;23398;50.928;7.084;2022-12-07T09:10:51;10.40;87.50
37560;DHT22;23398;50.928;7.084;2022-12-07T09:13:17;10.50;87.30
37560;DHT22;23398;50.928;7.084;2022-12-07T09:15:42;10.50;87.00
37560;DHT22;23398;50.928;7.084;2022-12-07T09:18:08;10.50;86.70
37560;DHT22;23398;50.928;7.084;2022-12-07T09:20:34;10.60;86.30
37560;DHT22;23398;50.928;7.084;2022-12-07T09:22:59;10.60;85.70
37560;DHT22;23398;50.928;7.084;2022-12-07T09:25:25;10.60;85.20
37560;DHT22;23398;50.928;7.084;2022-12-07T09:27:58;10.60;84.60
37560;DHT22;23398;50.928;7.084;2022-12-07T09:30:24;10.60;84.20
37560;DHT22;23398;50.928;7.084;2022-12-07T09:32:53;10.60;84.30
37560;DHT22;23398;50.928;7.084;2022-12-07T09:35:19;10.70;84.30
37560;DHT22;23398;50.928;7.084;2022-12-07T09:37:44;10.70;84.50
37560;DHT22;23398;50.928;7.084;2022-12-07T09:40:12;10.70;84.70
37560;DHT22;23398;50.928;7.084;2022-12-07T09:42:39;10.80;84.60
37560;DHT22;23398;50.928;7.084;2022-12-07T09:45:17;10.80;84.30
37560;DHT22;23398;50.928;7.084;2022-12-07T09:47:45;10.80;84.00
37560;DHT22;23398;50.928;7.084;2022-12-07T09:50:23;10.90;83.90
37560;DHT22;23398;50.928;7.084;2022-12-07T09:52:50;10.90;83.20
37560;DHT22;23398;50.928;7.084;2022-12-07T09:55:21;10.90;83.40
37560;DHT22;23398;50.928;7.084;2022-12-07T09:57:49;11.00;83.20
37560;DHT22;23398;50.928;7.084;2022-12-07T10:00:19;11.00;83.50
37560;DHT22;23398;50.928;7.084;2022-12-07T10:05:19;11.10;83.30
37560;DHT22;23398;50.928;7.084;2022-12-07T10:07:46;11.20;83.10
37560;DHT22;23398;50.928;7.084;2022-12-07T10:10:20;11.20;83.10
37560;DHT22;23398;50.928;7.084;2022-12-07T10:13:00;11.30;82.90
37560;DHT22;23398;50.928;7.084;2022-12-07T10:18:39;11.50;82.50
37560;DHT22;23398;50.928;7.084;2022-12-07T10:21:13;11.60;82.30
37560;DHT22;23398;50.928;7.084;2022-12-07T10:23:42;11.70;81.80
37560;DHT22;23398;50.928;7.084;2022-12-07T10:28:51;11.80;80.00
37560;DHT22;23398;50.928;7.084;2022-12-07T10:31:19;11.80;79.80
37560;DHT22;23398;50.928;7.084;2022-12-07T10:33:57;11.80;79.00
37560;DHT22;23398;50.928;7.084;2022-12-07T10:36:34;11.80;78.30
37560;DHT22;23398;50.928;7.084;2022-12-07T10:39:12;11.80;78.00
37560;DHT22;23398;50.928;7.084;2022-12-07T10:42:02;11.80;77.80
37560;DHT22;23398;50.928;7.084;2022-12-07T10:44:30;11.70;77.80
37560;DHT22;23398;50.928;7.084;2022-12-07T10:53:01;11.70;78.20
37560;DHT22;23398;50.928;7.084;2022-12-07T11:06:43;11.70;78.10
37560;DHT22;23398;50.928;7.084;2022-12-07T11:09:37;11.70;77.90
37560;DHT22;23398;50.928;7.084;2022-12-07T11:12:09;11.70;77.80
37560;DHT22;23398;50.928;7.084;2022-12-07T11:14:44;11.80;78.30
37560;DHT22;23398;50.928;7.084;2022-12-07T11:23:02;11.90;78.10
37560;DHT22;23398;50.928;7.084;2022-12-07T11:33:56;12.00;76.50
37560;DHT22;23398;50.928;7.084;2022-12-07T11:36:37;12.30;76.90
37560;DHT22;23398;50.928;7.084;2022-12-07T11:41:54;12.10;76.60
37560;DHT22;23398;50.928;7.084;2022-12-07T11:47:07;12.10;76.60
37560;DHT22;23398;50.928;7.084;2022-12-07T11:49:51;12.10;75.70
37560;DHT22;23398;50.928;7.084;2022-12-07T11:55:17;12.10;75.20
37560;DHT22;23398;50.928;7.084;2022-12-07T11:57:46;12.10;75.40
37560;DHT22;23398;50.928;7.084;2022-12-07T12:00:15;12.10;75.80
37560;DHT22;23398;50.928;7.084;2022-12-07T12:03:12;12.20;76.30
37560;DHT22;23398;50.928;7.084;2022-12-07T12:05:40;12.20;75.70
37560;DHT22;23398;50.928;7.084;2022-12-07T12:08:26;12.20;76.20
37560;DHT22;23398;50.928;7.084;2022-12-07T12:11:05;12.30;75.10
37560;DHT22;23398;50.928;7.084;2022-12-07T12:19:12;12.40;73.30
37560;DHT22;23398;50.928;7.084;2022-12-07T12:21:42;12.40;73.00
37560;DHT22;23398;50.928;7.084;2022-12-07T12:24:19;12.40;73.50
37560;DHT22;23398;50.928;7.084;2022-12-07T12:27:01;12.40;73.10
37560;DHT22;23398;50.928;7.084;2022-12-07T12:29:33;12.40;72.90
37560;DHT22;23398;50.928;7.084;2022-12-07T12:32:12;12.50;73.00
37560;DHT22;23398;50.928;7.084;2022-12-07T12:42:48;12.60;71.90
37560;DHT22;23398;50.928;7.084;2022-12-07T12:45:31;12.60;71.80
37560;DHT22;23398;50.928;7.084;2022-12-07T12:48:00;12.60;71.90
37560;DHT22;23398;50.928;7.084;2022-12-07T13:01:30;12.50;70.60
37560;DHT22;23398;50.928;7.084;2022-12-07T13:03:34;12.50;70.30
37560;DHT22;23398;50.928;7.084;2022-12-07T13:08:52;12.30;70.10
37560;DHT22;23398;50.928;7.084;2022-12-07T13:11:33;12.30;70.90
37560;DHT22;23398;50.928;7.084;2022-12-07T13:17:03;12.10;70.70
37560;DHT22;23398;50.928;7.084;2022-12-07T13:22:36;12.00;70.80
37560;DHT22;23398;50.928;7.084;2022-12-07T13:27:43;12.00;71.10
37560;DHT22;23398;50.928;7.084;2022-12-07T13:30:20;11.90;71.20
37560;DHT22;23398;50.928;7.084;2022-12-07T13:32:54;11.90;71.40
37560;DHT22;23398;50.928;7.084;2022-12-07T13:35:34;11.80;71.20
37560;DHT22;23398;50.928;7.084;2022-12-07T13:38:02;11.80;71.10
37560;DHT22;23398;50.928;7.084;2022-12-07T13:40:29;11.80;71.40
37560;DHT22;23398;50.928;7.084;2022-12-07T13:43:04;11.80;71.60
37560;DHT22;23398;50.928;7.084;2022-12-07T13:45:32;11.80;71.60
37560;DHT22;23398;50.928;7.084;2022-12-07T13:51:21;11.80;71.30
37560;DHT22;23398;50.928;7.084;2022-12-07T13:53:53;11.80;71.60
37560;DHT22;23398;50.928;7.084;2022-12-07T13:56:21;11.70;71.40
37560;DHT22;23398;50.928;7.084;2022-12-07T13:58:47;11.70;71.70
37560;DHT22;23398;50.928;7.084;2022-12-07T14:01:13;11.70;71.80
37560;DHT22;23398;50.928;7.084;2022-12-07T14:03:39;11.70;71.90
37560;DHT22;23398;50.928;7.084;2022-12-07T14:06:23;11.70;71.90
37560;DHT22;23398;50.928;7.084;2022-12-07T14:09:20;11.70;71.50
37560;DHT22;23398;50.928;7.084;2022-12-07T14:11:48;11.70;71.50
37560;DHT22;23398;50.928;7.084;2022-12-07T14:14:18;11.70;71.80
37560;DHT22;23398;50.928;7.084;2022-12-07T14:16:54;11.70;71.70
37560;DHT22;23398;50.928;7.084;2022-12-07T14:22:19;11.60;71.20
37560;DHT22;23398;50.928;7.084;2022-12-07T14:24:45;11.60;71.60
37560;DHT22;23398;50.928;7.084;2022-12-07T14:27:22;11.50;71.50
37560;DHT22;23398;50.928;7.084;2022-12-07T14:29:48;11.50;71.30
37560;DHT22;23398;50.928;7.084;2022-12-07T14:35:11;11.50;71.30
37560;DHT22;23398;50.928;7.084;2022-12-07T14:37:38;11.40;71.10
37560;DHT22;23398;50.928;7.084;2022-12-07T14:40:05;11.40;71.40
37560;DHT22;23398;50.928;7.084;2022-12-07T14:42:33;11.40;71.70
37560;DHT22;23398;50.928;7.084;2022-12-07T14:44:59;11.30;71.50
37560;DHT22;23398;50.928;7.084;2022-12-07T14:47:25;11.30;71.60
37560;DHT22;23398;50.928;7.084;2022-12-07T14:49:52;11.20;71.60
37560;DHT22;23398;50.928;7.084;2022-12-07T14:52:20;11.20;71.80
37560;DHT22;23398;50.928;7.084;2022-12-07T14:54:47;11.20;72.00
37560;DHT22;23398;50.928;7.084;2022-12-07T14:57:12;11.10;72.10
37560;DHT22;23398;50.928;7.084;2022-12-07T14:59:38;11.10;72.10
37560;DHT22;23398;50.928;7.084;2022-12-07T15:02:05;11.10;72.30
37560;DHT22;23398;50.928;7.084;2022-12-07T15:04:32;11.10;72.20
37560;DHT22;23398;50.928;7.084;2022-12-07T15:07:00;11.00;72.20
37560;DHT22;23398;50.928;7.084;2022-12-07T15:09:26;10.80;72.10
37560;DHT22;23398;50.928;7.084;2022-12-07T15:11:52;11.00;72.40
37560;DHT22;23398;50.928;7.084;2022-12-07T15:14:17;11.00;72.50
37560;DHT22;23398;50.928;7.084;2022-12-07T15:16:43;10.90;72.60
37560;DHT22;23398;50.928;7.084;2022-12-07T15:19:16;10.90;72.70
37560;DHT22;23398;50.928;7.084;2022-12-07T15:21:42;10.90;72.70
37560;DHT22;23398;50.928;7.084;2022-12-07T15:24:10;10.80;72.80
37560;DHT22;23398;50.928;7.084;2022-12-07T15:26:36;10.80;73.00
37560;DHT22;23398;50.928;7.084;2022-12-07T15:29:02;10.80;73.30
37560;DHT22;23398;50.928;7.084;2022-12-07T15:31:27;10.80;73.40
37560;DHT22;23398;50.928;7.084;2022-12-07T15:33:53;10.70;73.50
37560;DHT22;23398;50.928;7.084;2022-12-07T15:36:23;10.70;73.80
37560;DHT22;23398;50.928;7.084;2022-12-07T15:38:49;10.70;74.10
37560;DHT22;23398;50.928;7.084;2022-12-07T15:41:15;10.70;74.50
37560;DHT22;23398;50.928;7.084;2022-12-07T15:43:41;10.70;74.90
37560;DHT22;23398;50.928;7.084;2022-12-07T15:46:33;10.90;75.20
37560;DHT22;23398;50.928;7.084;2022-12-07T15:49:00;10.70;75.00
37560;DHT22;23398;50.928;7.084;2022-12-07T15:51:26;10.60;74.60
37560;DHT22;23398;50.928;7.084;2022-12-07T15:53:52;10.60;74.30
37560;DHT22;23398;50.928;7.084;2022-12-07T15:56:17;10.50;74.30
37560;DHT22;23398;50.928;7.084;2022-12-07T15:58:43;10.50;74.70
37560;DHT22;23398;50.928;7.084;2022-12-07T16:01:12;10.40;74.80
37560;DHT22;23398;50.928;7.084;2022-12-07T16:03:39;10.30;74.80
37560;DHT22;23398;50.928;7.084;2022-12-07T16:06:04;10.30;75.00
37560;DHT22;23398;50.928;7.084;2022-12-07T16:08:30;10.30;75.20
37560;DHT22;23398;50.928;7.084;2022-12-07T16:10:56;10.20;75.30
37560;DHT22;23398;50.928;7.084;2022-12-07T16:13:21;10.10;75.30
37560;DHT22;23398;50.928;7.084;2022-12-07T16:15:47;10.00;75.50
37560;DHT22;23398;50.928;7.084;2022-12-07T16:18:12;9.90;76.80
37560;DHT22;23398;50.928;7.084;2022-12-07T16:20:39;9.90;77.00
37560;DHT22;23398;50.928;7.084;2022-12-07T16:23:05;9.70;76.80
37560;DHT22;23398;50.928;7.084;2022-12-07T16:25:31;9.70;77.00
37560;DHT22;23398;50.928;7.084;2022-12-07T16:27:56;9.60;77.10
37560;DHT22;23398;50.928;7.084;2022-12-07T16:30:22;9.50;77.50
37560;DHT22;23398;50.928;7.084;2022-12-07T16:32:47;9.40;77.80
37560;DHT22;23398;50.928;7.084;2022-12-07T16:35:13;9.30;78.00
37560;DHT22;23398;50.928;7.084;2022-12-07T16:37:41;9.30;78.30
37560;DHT22;23398;50.928;7.084;2022-12-07T16:40:07;9.20;78.60
37560;DHT22;23398;50.928;7.084;2022-12-07T16:42:33;9.20;79.00
37560;DHT22;23398;50.928;7.084;2022-12-07T16:45:00;9.10;79.30
37560;DHT22;23398;50.928;7.084;2022-12-07T16:47:26;9.10;79.50
37560;DHT22;23398;50.928;7.084;2022-12-07T16:49:51;9.00;80.60
37560;DHT22;23398;50.928;7.084;2022-12-07T16:52:18;9.00;80.00
37560;DHT22;23398;50.928;7.084;2022-12-07T16:54:44;8.90;80.30
37560;DHT22;23398;50.928;7.084;2022-12-07T16:57:10;8.90;80.70
37560;DHT22;23398;50.928;7.084;2022-12-07T16:59:35;8.90;81.10
37560;DHT22;23398;50.928;7.084;2022-12-07T17:02:01;8.90;81.60
37560;DHT22;23398;50.928;7.084;2022-12-07T17:04:27;8.80;81.80
37560;DHT22;23398;50.928;7.084;2022-12-07T17:06:53;8.80;82.20
37560;DHT22;23398;50.928;7.084;2022-12-07T17:09:19;8.80;82.60
37560;DHT22;23398;50.928;7.084;2022-12-07T17:11:45;8.80;83.00
37560;DHT22;23398;50.928;7.084;2022-12-07T17:14:11;8.80;83.40
37560;DHT22;23398;50.928;7.084;2022-12-07T17:16:55;8.80;83.70
37560;DHT22;23398;50.928;7.084;2022-12-07T17:19:21;8.80;83.80
37560;DHT22;23398;50.928;7.084;2022-12-07T17:21:46;8.80;84.00
37560;DHT22;23398;50.928;7.084;2022-12-07T17:24:15;8.80;84.10
37560;DHT22;23398;50.928;7.084;2022-12-07T17:26:42;8.80;84.00
37560;DHT22;23398;50.928;7.084;2022-12-07T17:29:09;8.90;84.00
37560;DHT22;23398;50.928;7.084;2022-12-07T17:31:35;8.80;83.90
37560;DHT22;23398;50.928;7.084;2022-12-07T17:34:01;8.90;84.10
37560;DHT22;23398;50.928;7.084;2022-12-07T17:36:29;8.90;84.20
37560;DHT22;23398;50.928;7.084;2022-12-07T17:38:55;8.90;84.40
37560;DHT22;23398;50.928;7.084;2022-12-07T17:41:27;8.90;84.50
37560;DHT22;23398;50.928;7.084;2022-12-07T17:44:14;8.90;84.70
37560;DHT22;23398;50.928;7.084;2022-12-07T17:46:40;8.90;84.50
37560;DHT22;23398;50.928;7.084;2022-12-07T17:49:06;9.00;84.70